createdAt,value
2022-10-20T00:02:34.097Z,8.67
2022-10-20T00:05:21.046Z,8.53
2022-10-20T00:08:06.645Z,7.43
2022-10-20T00:10:58.683Z,8.87
2022-10-20T00:13:45.689Z,8.40
2022-10-20T00:16:32.515Z,7.87
2022-10-20T00:19:18.145Z,8.27
2022-10-20T00:22:03.975Z,8.33
2022-10-20T00:24:52.144Z,7.73
2022-10-20T00:27:37.907Z,8.60
2022-10-20T00:30:25.681Z,8.00
2022-10-20T00:33:11.585Z,8.80
2022-10-20T00:36:00.215Z,8.07
2022-10-20T00:38:45.788Z,7.97
2022-10-20T00:41:33.257Z,7.77
2022-10-20T00:44:38.078Z,8.37
2022-10-20T00:47:32.131Z,8.20
2022-10-20T00:50:20.102Z,7.40
2022-10-20T00:53:06.450Z,8.00
2022-10-20T00:55:54.921Z,8.10
2022-10-20T00:58:41.262Z,7.80
2022-10-20T01:01:27.441Z,7.23
2022-10-20T01:04:13.695Z,8.07
2022-10-20T01:07:00.144Z,8.10
2022-10-20T01:09:47.654Z,7.60
2022-10-20T01:12:33.682Z,6.53
2022-10-20T01:15:30.781Z,8.10
2022-10-20T01:18:20.980Z,8.03
2022-10-20T01:21:09.886Z,8.30
2022-10-20T01:24:15.414Z,7.77
2022-10-20T01:27:23.552Z,8.53
2022-10-20T01:30:12.618Z,8.10
2022-10-20T01:33:09.947Z,9.00
2022-10-20T01:36:00.235Z,8.30
2022-10-20T01:39:08.448Z,7.53
2022-10-20T01:41:57.016Z,7.80
2022-10-20T01:44:43.888Z,7.90
2022-10-20T01:47:30.225Z,7.77
2022-10-20T01:50:16.363Z,7.80
2022-10-20T01:53:02.628Z,8.77
2022-10-20T01:55:51.011Z,8.80
2022-10-20T01:58:36.546Z,8.00
2022-10-20T02:01:41.384Z,8.63
2022-10-20T02:04:31.125Z,7.63
2022-10-20T02:07:23.762Z,8.30
2022-10-20T02:10:12.937Z,7.57
2022-10-20T02:13:01.341Z,9.23
2022-10-20T02:15:50.165Z,9.23
2022-10-20T02:18:39.302Z,8.43
2022-10-20T02:21:25.350Z,8.13
2022-10-20T02:24:11.051Z,8.87
2022-10-20T02:26:58.662Z,8.40
2022-10-20T02:29:51.090Z,9.37
2022-10-20T02:32:38.604Z,8.30
2022-10-20T02:35:32.768Z,8.13
2022-10-20T02:38:18.995Z,8.50
2022-10-20T02:41:05.476Z,8.27
2022-10-20T02:43:52.068Z,9.57
2022-10-20T02:46:37.900Z,8.27
2022-10-20T02:49:25.197Z,9.37
2022-10-20T02:52:11.670Z,8.67
2022-10-20T02:54:57.667Z,8.60
2022-10-20T02:57:44.034Z,8.20
2022-10-20T03:00:31.082Z,9.37
2022-10-20T03:03:18.122Z,8.63
2022-10-20T03:06:08.260Z,8.10
2022-10-20T03:08:54.284Z,8.20
2022-10-20T03:11:40.050Z,8.10
2022-10-20T03:14:26.317Z,8.30
2022-10-20T03:17:12.663Z,8.80
2022-10-20T03:19:58.548Z,7.50
2022-10-20T03:22:44.445Z,9.40
2022-10-20T03:25:32.194Z,8.23
2022-10-20T03:28:18.428Z,8.07
2022-10-20T03:31:05.632Z,8.33
2022-10-20T03:33:51.721Z,9.30
2022-10-20T03:36:37.623Z,8.80
2022-10-20T03:39:23.441Z,8.23
2022-10-20T03:42:09.385Z,8.70
2022-10-20T03:44:55.271Z,8.20
2022-10-20T03:47:41.305Z,8.33
2022-10-20T03:50:27.303Z,8.03
2022-10-20T03:53:14.381Z,8.37
2022-10-20T03:56:00.436Z,9.50
2022-10-20T03:58:46.676Z,9.00
2022-10-20T04:01:33.506Z,8.97
2022-10-20T04:04:19.465Z,10.60
2022-10-20T04:07:05.556Z,9.87
2022-10-20T04:09:51.653Z,8.70
2022-10-20T04:12:38.067Z,9.07
2022-10-20T04:15:24.103Z,10.50
2022-10-20T04:18:10.263Z,8.77
2022-10-20T04:20:56.427Z,8.30
2022-10-20T04:23:42.156Z,9.67
2022-10-20T04:26:28.377Z,9.27
2022-10-20T04:29:14.226Z,9.10
2022-10-20T04:32:00.903Z,8.50
2022-10-20T04:34:46.882Z,9.73
2022-10-20T04:37:33.097Z,9.60
2022-10-20T04:40:20.015Z,9.07
2022-10-20T04:43:06.196Z,9.80
2022-10-20T04:45:59.858Z,8.73
2022-10-20T04:48:50.661Z,9.33
2022-10-20T04:51:36.913Z,9.17
2022-10-20T04:54:22.639Z,9.53
2022-10-20T04:57:10.847Z,8.57
2022-10-20T04:59:58.222Z,10.40
2022-10-20T05:02:44.159Z,8.90
2022-10-20T05:05:30.315Z,10.60
2022-10-20T05:08:18.166Z,10.27
2022-10-20T05:11:04.517Z,10.13
2022-10-20T05:13:50.236Z,9.07
2022-10-20T05:16:36.077Z,10.97
2022-10-20T05:19:22.093Z,10.30
2022-10-20T05:22:07.950Z,10.60
2022-10-20T05:24:53.773Z,9.93
2022-10-20T05:27:39.578Z,10.60
2022-10-20T05:30:25.115Z,10.30
2022-10-20T05:33:11.630Z,11.30
2022-10-20T05:35:57.918Z,9.93
2022-10-20T05:38:43.591Z,10.47
2022-10-20T05:41:33.395Z,9.50
2022-10-20T05:44:23.517Z,11.23
2022-10-20T05:47:09.184Z,11.07
2022-10-20T05:49:55.132Z,10.20
2022-10-20T05:52:40.980Z,10.13
2022-10-20T05:55:26.808Z,11.27
2022-10-20T05:58:12.616Z,11.50
2022-10-20T06:01:07.684Z,15.00
2022-10-20T06:03:57.810Z,11.17
2022-10-20T06:06:44.117Z,11.00
2022-10-20T06:09:29.714Z,10.90
2022-10-20T06:12:15.694Z,11.63
2022-10-20T06:15:01.379Z,11.50
2022-10-20T06:17:47.457Z,11.37
2022-10-20T06:20:33.036Z,11.37
2022-10-20T06:23:18.553Z,11.73
2022-10-20T06:26:05.499Z,11.13
2022-10-20T06:28:52.487Z,11.20
2022-10-20T06:31:40.344Z,11.40
2022-10-20T06:34:26.399Z,11.50
2022-10-20T06:37:14.005Z,12.50
2022-10-20T06:40:00.002Z,12.47
2022-10-20T06:42:47.099Z,12.70
2022-10-20T06:45:33.472Z,12.30
2022-10-20T06:48:20.335Z,12.43
2022-10-20T06:51:07.408Z,12.07
2022-10-20T06:53:53.058Z,12.13
2022-10-20T06:56:39.556Z,12.50
2022-10-20T06:59:25.201Z,14.50
2022-10-20T07:02:12.210Z,13.57
2022-10-20T07:04:57.949Z,14.67
2022-10-20T07:07:43.866Z,13.10
2022-10-20T07:10:29.721Z,12.30
2022-10-20T07:13:15.470Z,12.73
2022-10-20T07:16:01.356Z,13.40
2022-10-20T07:18:47.459Z,12.93
2022-10-20T07:21:36.814Z,13.50
2022-10-20T07:24:24.363Z,12.57
2022-10-20T07:27:10.291Z,13.80
2022-10-20T07:29:56.051Z,13.23
2022-10-20T07:32:41.541Z,14.40
2022-10-20T07:35:30.410Z,13.87
2022-10-20T07:38:18.585Z,14.60
2022-10-20T07:41:04.661Z,14.43
2022-10-20T07:43:50.514Z,13.23
2022-10-20T07:46:36.392Z,14.00
2022-10-20T07:49:43.429Z,12.43
2022-10-20T07:52:30.218Z,13.43
2022-10-20T07:55:33.518Z,15.40
2022-10-20T07:58:21.778Z,14.37
2022-10-20T08:01:08.087Z,14.00
2022-10-20T08:03:54.114Z,15.70
2022-10-20T08:06:39.744Z,13.70
2022-10-20T08:09:25.334Z,14.10
2022-10-20T08:12:11.704Z,15.50
2022-10-20T08:14:57.597Z,17.80
2022-10-20T08:17:43.547Z,17.30
2022-10-20T08:20:32.040Z,14.97
2022-10-20T08:23:17.992Z,17.00
2022-10-20T08:26:06.816Z,15.40
2022-10-20T08:28:56.196Z,15.90
2022-10-20T08:31:42.010Z,15.37
2022-10-20T08:34:28.020Z,16.77
2022-10-20T08:37:13.942Z,16.20
2022-10-20T08:39:59.363Z,16.23
2022-10-20T08:42:45.691Z,15.40
2022-10-20T08:45:35.953Z,16.27
2022-10-20T08:48:28.635Z,17.37
2022-10-20T08:51:22.388Z,16.43
2022-10-20T08:54:13.414Z,16.20
2022-10-20T08:56:59.604Z,15.90
2022-10-20T08:59:45.076Z,16.07
2022-10-20T09:02:33.655Z,17.00
2022-10-20T09:05:25.671Z,17.27
2022-10-20T09:08:11.303Z,15.77
2022-10-20T09:10:57.249Z,16.90
2022-10-20T09:13:43.272Z,18.10
2022-10-20T09:16:42.086Z,17.60
2022-10-20T09:19:34.603Z,16.77
2022-10-20T09:22:22.192Z,15.97
2022-10-20T09:25:13.605Z,17.10
2022-10-20T09:27:59.195Z,17.20
2022-10-20T09:30:45.686Z,17.00
2022-10-20T09:33:33.537Z,17.50
2022-10-20T09:36:20.176Z,16.60
2022-10-20T09:39:05.879Z,18.00
2022-10-20T09:41:59.591Z,16.67
2022-10-20T09:44:54.709Z,16.77
2022-10-20T09:47:43.206Z,16.57
2022-10-20T09:50:29.100Z,16.97
2022-10-20T09:53:19.427Z,18.43
2022-10-20T09:56:05.097Z,18.67
2022-10-20T09:58:50.705Z,16.60
2022-10-20T10:01:52.719Z,16.83
2022-10-20T10:04:39.497Z,15.60
2022-10-20T10:07:28.384Z,14.80
2022-10-20T10:10:20.327Z,15.37
2022-10-20T10:16:01.248Z,15.53
2022-10-20T10:19:03.297Z,16.50
2022-10-20T10:21:59.935Z,15.97
2022-10-20T10:24:47.044Z,18.77
2022-10-20T10:27:35.051Z,15.80
2022-10-20T10:30:31.744Z,19.10
2022-10-20T10:33:28.114Z,18.30
2022-10-20T10:36:18.210Z,18.10
2022-10-20T10:39:05.460Z,20.03
2022-10-20T10:41:54.426Z,18.10
2022-10-20T10:44:55.050Z,17.00
2022-10-20T10:47:46.804Z,18.00
2022-10-20T10:50:49.335Z,17.87
2022-10-20T10:53:53.929Z,15.80
2022-10-20T10:56:55.148Z,17.83
2022-10-20T10:59:44.840Z,16.47
2022-10-20T11:02:33.876Z,17.47
2022-10-20T11:05:34.849Z,16.63
2022-10-20T11:08:26.088Z,17.13
2022-10-20T11:11:20.983Z,16.20
2022-10-20T11:17:31.168Z,17.20
2022-10-20T11:20:25.458Z,17.07
2022-10-20T11:23:20.728Z,16.23
2022-10-20T11:26:17.354Z,17.53
2022-10-20T11:29:04.937Z,16.30
2022-10-20T11:31:56.037Z,15.93
2022-10-20T11:34:55.150Z,16.70
2022-10-20T11:37:59.696Z,15.70
2022-10-20T11:40:48.211Z,21.47
2022-10-20T11:43:37.656Z,16.40
2022-10-20T11:46:28.029Z,16.13
2022-10-20T11:49:15.020Z,15.73
2022-10-20T11:52:19.279Z,16.07
2022-10-20T11:55:25.550Z,15.40
2022-10-20T11:58:30.911Z,17.73
2022-10-20T12:01:31.952Z,16.93
2022-10-20T12:04:40.400Z,18.67
2022-10-20T12:07:49.779Z,15.40
2022-10-20T12:10:54.270Z,15.50
2022-10-20T12:13:46.091Z,17.07
2022-10-20T12:16:50.381Z,15.67
2022-10-20T12:19:36.209Z,16.70
2022-10-20T12:22:38.619Z,19.33
2022-10-20T12:25:27.903Z,15.83
2022-10-20T12:28:23.117Z,17.83
2022-10-20T12:31:09.144Z,15.83
2022-10-20T12:33:56.427Z,17.00
2022-10-20T12:36:42.127Z,18.67
2022-10-20T12:39:29.957Z,16.20
2022-10-20T12:42:29.357Z,16.17
2022-10-20T12:45:21.373Z,14.93
2022-10-20T12:48:08.101Z,16.17
2022-10-20T12:50:54.725Z,15.23
2022-10-20T12:53:41.002Z,15.60
2022-10-20T12:56:28.966Z,16.17
2022-10-20T12:59:23.506Z,15.37
2022-10-20T13:02:09.404Z,15.50
2022-10-20T13:05:03.081Z,15.07
2022-10-20T13:07:49.573Z,16.50
2022-10-20T13:10:36.381Z,16.00
2022-10-20T13:13:22.448Z,15.10
2022-10-20T13:16:14.220Z,17.00
2022-10-20T13:19:00.509Z,14.70
2022-10-20T13:21:49.619Z,15.50
2022-10-20T13:24:40.544Z,17.13
2022-10-20T13:27:30.295Z,17.10
2022-10-20T13:30:20.580Z,18.70
2022-10-20T13:33:34.507Z,18.57
2022-10-20T13:36:43.218Z,17.17
2022-10-20T13:39:29.126Z,16.20
2022-10-20T13:42:14.906Z,17.70
2022-10-20T13:45:07.154Z,18.43
2022-10-20T13:48:08.414Z,16.60
2022-10-20T13:50:57.363Z,17.00
2022-10-20T13:53:45.750Z,20.60
2022-10-20T13:56:40.893Z,18.57
2022-10-20T13:59:29.060Z,17.70
2022-10-20T14:02:31.843Z,17.73
2022-10-20T14:05:21.455Z,18.90
2022-10-20T14:08:11.468Z,16.70
2022-10-20T14:11:04.401Z,17.77
2022-10-20T14:13:50.201Z,17.40
2022-10-20T14:16:39.888Z,18.70
2022-10-20T14:19:28.091Z,17.27
2022-10-20T14:22:16.848Z,18.60
2022-10-20T14:25:05.349Z,18.90
2022-10-20T14:27:53.274Z,20.77
2022-10-20T14:30:41.200Z,17.87
2022-10-20T14:33:27.654Z,18.57
2022-10-20T14:36:18.919Z,18.53
2022-10-20T14:39:04.945Z,18.20
2022-10-20T14:41:50.529Z,18.27
2022-10-20T14:44:37.219Z,19.70
2022-10-20T14:47:23.643Z,17.30
2022-10-20T14:50:19.897Z,19.60
2022-10-20T14:53:19.548Z,17.73
2022-10-20T14:56:23.712Z,19.93
2022-10-20T14:59:14.092Z,20.90
2022-10-20T15:02:11.631Z,19.73
2022-10-20T15:04:57.299Z,20.60
2022-10-20T15:07:43.584Z,19.90
2022-10-20T15:10:31.503Z,18.83
2022-10-20T15:13:31.893Z,21.00
2022-10-20T15:16:34.576Z,21.60
2022-10-20T15:19:33.002Z,20.20
2022-10-20T15:22:18.757Z,21.57
2022-10-20T15:25:04.751Z,20.40
2022-10-20T15:27:50.882Z,20.93
2022-10-20T15:30:36.474Z,20.90
2022-10-20T15:33:22.381Z,20.80
2022-10-20T15:36:20.758Z,21.03
2022-10-20T15:39:07.937Z,23.20
2022-10-20T15:41:55.107Z,21.63
2022-10-20T15:44:40.573Z,21.87
2022-10-20T15:47:26.568Z,21.53
2022-10-20T15:50:12.600Z,20.60
2022-10-20T15:53:01.371Z,19.83
2022-10-20T15:55:47.284Z,21.20
2022-10-20T15:58:37.371Z,20.67
2022-10-20T16:01:25.794Z,19.97
2022-10-20T16:04:19.210Z,23.57
2022-10-20T16:07:04.908Z,23.63
2022-10-20T16:09:50.755Z,20.90
2022-10-20T16:12:37.928Z,20.80
2022-10-20T16:15:28.891Z,22.90
2022-10-20T16:18:17.126Z,23.03
2022-10-20T16:21:03.811Z,22.30
2022-10-20T16:23:51.439Z,23.30
2022-10-20T16:26:37.258Z,23.33
2022-10-20T16:29:23.436Z,21.40
2022-10-20T16:32:09.108Z,24.50
2022-10-20T16:34:56.033Z,22.63
2022-10-20T16:37:43.972Z,24.73
2022-10-20T16:40:29.847Z,24.60
2022-10-20T16:43:15.608Z,21.87
2022-10-20T16:46:04.332Z,24.27
2022-10-20T16:48:50.224Z,25.33
2022-10-20T16:51:36.078Z,24.70
2022-10-20T16:54:21.939Z,26.20
2022-10-20T16:57:10.848Z,23.80
2022-10-20T16:59:56.733Z,24.37
2022-10-20T17:02:44.719Z,25.33
2022-10-20T17:05:30.684Z,22.33
2022-10-20T17:08:17.585Z,25.97
2022-10-20T17:11:11.311Z,24.90
2022-10-20T17:13:57.177Z,23.10
2022-10-20T17:16:42.898Z,24.27
2022-10-20T17:19:28.812Z,21.60
2022-10-20T17:22:15.835Z,22.80
2022-10-20T17:25:01.699Z,21.37
2022-10-20T17:27:47.522Z,22.20
2022-10-20T17:30:33.153Z,22.47
2022-10-20T17:33:19.226Z,22.47
2022-10-20T17:36:05.501Z,22.50
2022-10-20T17:38:53.292Z,21.97
2022-10-20T17:41:39.648Z,22.23
2022-10-20T17:44:26.384Z,22.80
2022-10-20T17:47:12.445Z,22.60
2022-10-20T17:49:58.220Z,24.67
2022-10-20T17:52:44.123Z,24.97
2022-10-20T17:55:30.285Z,22.00
2022-10-20T17:58:16.130Z,23.00
2022-10-20T18:01:08.794Z,23.10
2022-10-20T18:03:58.276Z,21.70
2022-10-20T18:06:46.850Z,21.50
2022-10-20T18:09:32.725Z,25.90
2022-10-20T18:12:18.483Z,24.20
2022-10-20T18:15:04.745Z,41.80
2022-10-20T18:17:50.350Z,24.63
2022-10-20T18:20:36.114Z,24.00
2022-10-20T18:23:22.001Z,24.73
2022-10-20T18:26:08.826Z,24.37
2022-10-20T18:28:54.901Z,24.93
2022-10-20T18:31:45.211Z,27.00
2022-10-20T18:34:31.030Z,26.60
2022-10-20T18:37:19.168Z,25.80
2022-10-20T18:40:05.936Z,26.93
2022-10-20T18:42:51.716Z,24.70
2022-10-20T18:45:37.379Z,27.03
2022-10-20T18:48:23.016Z,25.87
2022-10-20T18:51:09.517Z,25.03
2022-10-20T18:53:56.757Z,26.40
2022-10-20T18:56:42.972Z,27.67
2022-10-20T18:59:28.550Z,25.30
2022-10-20T19:02:14.237Z,26.73
2022-10-20T19:05:00.015Z,27.37
2022-10-20T19:07:46.337Z,24.47
2022-10-20T19:10:32.080Z,27.53
2022-10-20T19:13:17.598Z,27.17
2022-10-20T19:16:07.316Z,26.33
2022-10-20T19:18:54.008Z,28.13
2022-10-20T19:21:39.854Z,26.60
2022-10-20T19:24:25.736Z,22.87
2022-10-20T19:27:26.221Z,25.47
2022-10-20T19:30:12.544Z,24.43
2022-10-20T19:32:58.918Z,27.50
2022-10-20T19:35:44.440Z,25.00
2022-10-20T19:38:30.268Z,24.10
2022-10-20T19:41:16.185Z,24.67
2022-10-20T19:44:02.198Z,23.13
2022-10-20T19:46:48.759Z,23.00
2022-10-20T19:49:34.641Z,22.77
2022-10-20T19:52:21.226Z,23.47
2022-10-20T19:55:07.312Z,24.53
2022-10-20T19:57:53.487Z,24.93
2022-10-20T20:00:42.715Z,23.60
2022-10-20T20:03:30.234Z,25.23
2022-10-20T20:06:18.287Z,24.73
2022-10-20T20:09:06.087Z,25.63
2022-10-20T20:11:51.939Z,24.13
2022-10-20T20:14:38.894Z,24.20
2022-10-20T20:17:24.712Z,22.60
2022-10-20T20:20:10.486Z,22.70
2022-10-20T20:22:56.113Z,23.30
2022-10-20T20:25:43.721Z,23.93
2022-10-20T20:28:29.809Z,22.87
2022-10-20T20:31:15.657Z,21.70
2022-10-20T20:34:04.280Z,23.67
2022-10-20T20:36:50.945Z,21.17
2022-10-20T20:39:36.944Z,23.13
2022-10-20T20:42:22.464Z,23.10
2022-10-20T20:45:08.398Z,22.17
2022-10-20T20:47:55.955Z,22.40
2022-10-20T20:50:41.542Z,21.77
2022-10-20T20:53:27.363Z,19.80
2022-10-20T20:56:15.124Z,27.03
2022-10-20T20:59:00.678Z,24.50
2022-10-20T21:01:47.015Z,22.77
2022-10-20T21:04:32.704Z,20.53
2022-10-20T21:07:18.558Z,21.70
2022-10-20T21:10:04.958Z,21.00
2022-10-20T21:12:50.794Z,22.57
2022-10-20T21:15:36.686Z,22.23
2022-10-20T21:18:22.487Z,20.67
2022-10-20T21:21:12.905Z,20.00
2022-10-20T21:23:59.595Z,19.60
2022-10-20T21:26:45.555Z,19.77
2022-10-20T21:29:31.327Z,21.40
2022-10-20T21:32:18.329Z,20.83
2022-10-20T21:35:04.207Z,21.80
2022-10-20T21:37:49.972Z,20.13
2022-10-20T21:40:36.806Z,21.33
2022-10-20T21:43:22.573Z,20.63
2022-10-20T21:46:18.891Z,20.77
2022-10-20T21:49:05.797Z,20.53
2022-10-20T21:51:53.006Z,20.20
2022-10-20T21:54:38.906Z,21.57
2022-10-20T21:57:24.583Z,21.73
2022-10-20T22:00:10.617Z,18.60
2022-10-20T22:02:56.421Z,20.27
2022-10-20T22:05:42.281Z,19.57
2022-10-20T22:08:28.337Z,19.17
2022-10-20T22:11:15.835Z,19.90
2022-10-20T22:14:01.802Z,21.03
2022-10-20T22:16:47.946Z,17.97
2022-10-20T22:19:34.466Z,20.63
2022-10-20T22:22:20.151Z,18.47
2022-10-20T22:25:06.436Z,19.20
2022-10-20T22:27:52.510Z,19.90
2022-10-20T22:30:38.391Z,18.23
2022-10-20T22:33:24.712Z,19.70
2022-10-20T22:36:11.057Z,19.23
2022-10-20T22:38:56.919Z,21.77
2022-10-20T22:41:42.924Z,20.07
2022-10-20T22:44:28.702Z,21.13
2022-10-20T22:47:14.785Z,20.90
2022-10-20T22:50:00.689Z,20.70
2022-10-20T22:52:46.751Z,21.53
2022-10-20T22:55:32.800Z,19.47
2022-10-20T22:58:18.664Z,20.80
2022-10-20T23:01:08.623Z,20.47
2022-10-20T23:03:55.341Z,22.70
2022-10-20T23:06:41.617Z,22.33
2022-10-20T23:09:27.559Z,19.90
2022-10-20T23:12:13.659Z,21.20
2022-10-20T23:14:59.860Z,21.10
2022-10-20T23:17:46.534Z,22.30
2022-10-20T23:20:32.475Z,19.30
2022-10-20T23:23:18.451Z,22.00
2022-10-20T23:26:05.281Z,21.40
2022-10-20T23:28:51.662Z,21.20
2022-10-20T23:31:37.848Z,22.47
2022-10-20T23:34:23.785Z,21.47
2022-10-20T23:37:09.802Z,21.20
2022-10-20T23:39:55.713Z,21.90
2022-10-20T23:42:41.669Z,22.40
2022-10-20T23:45:27.555Z,20.97
2022-10-20T23:48:14.836Z,24.30
2022-10-20T23:51:01.232Z,23.70
2022-10-20T23:53:47.059Z,23.20
2022-10-20T23:56:32.781Z,23.00
2022-10-20T23:59:18.770Z,22.17
